Time;durP1;ratioP1;P1;durP2;ratioP2;P2;SDS_P1;SDS_P2;PMS_P1;PMS_P2;Temp;Humidity;BMP_temperature;BMP_pressure;BME280_temperature;BME280_humidity;BME280_pressure;Samples;Min_cycle;Max_cycle;Signal;HPM_P1;HPM_P2
2022/09/21 00:01:21;;;;;;;5.07;3.30;;;6.50;99.90;;;5.90;100.00;98019.63;5019316;28;20036;-39
2022/09/21 00:03:52;;;;;;;5.22;3.45;;;6.50;99.90;;;5.87;100.00;98020.53;5033770;28;20041;-39
2022/09/21 00:06:20;;;;;;;5.03;3.40;;;6.50;99.90;;;5.88;100.00;98016.16;5024766;28;20033;-39
2022/09/21 00:08:46;;;;;;;4.28;3.08;;;6.50;99.90;;;5.86;100.00;98024.00;5026881;28;20270;-39
2022/09/21 00:11:35;;;;;;;8.05;3.60;;;6.50;99.90;;;5.86;100.00;98021.38;5030794;28;20029;-40
2022/09/21 00:14:07;;;;;;;5.93;3.47;;;6.50;99.90;;;5.85;100.00;98021.41;5026834;28;20032;-39
2022/09/21 00:16:33;;;;;;;7.80;3.10;;;6.40;99.90;;;5.79;100.00;98011.00;5035474;28;20039;-39
2022/09/21 00:18:59;;;;;;;6.32;3.80;;;6.40;99.90;;;5.78;100.00;98009.25;5028417;28;20045;-39
2022/09/21 00:21:27;;;;;;;9.65;3.58;;;6.40;99.90;;;5.77;100.00;98013.63;5027146;28;20481;-39
2022/09/21 00:23:53;;;;;;;6.80;4.00;;;6.40;99.90;;;5.75;100.00;98028.47;5028583;28;20030;-39
2022/09/21 00:26:25;;;;;;;7.32;3.97;;;6.30;99.90;;;5.73;100.00;98022.38;5028572;28;20041;-39
2022/09/21 00:29:00;;;;;;;9.45;4.10;;;6.40;99.90;;;5.73;100.00;98030.25;5023045;28;21234;-39
2022/09/21 00:31:28;;;;;;;7.88;4.50;;;6.30;99.90;;;5.68;100.00;98026.78;5027858;28;20045;-39
2022/09/21 00:33:54;;;;;;;5.65;4.07;;;6.40;99.90;;;5.69;100.00;98031.16;5024431;28;20070;-39
2022/09/21 00:36:23;;;;;;;8.23;3.90;;;6.30;99.90;;;5.65;100.00;98021.56;5023184;28;20029;-39
2022/09/21 00:38:53;;;;;;;7.95;4.85;;;6.40;99.90;;;5.69;100.00;98023.28;5020775;28;20038;-39
2022/09/21 00:41:19;;;;;;;11.07;5.20;;;6.40;99.90;;;5.69;100.00;98021.53;5030910;28;20498;-39
2022/09/21 00:44:08;;;;;;;8.70;4.85;;;6.30;99.90;;;5.67;100.00;98015.44;5028303;28;20022;-39
2022/09/21 00:46:35;;;;;;;10.15;5.18;;;6.30;99.90;;;5.65;100.00;98019.84;5021118;28;20028;-39
2022/09/21 00:49:01;;;;;;;8.88;5.07;;;6.30;99.90;;;5.63;100.00;98023.31;5025095;28;20033;-39
2022/09/21 00:51:28;;;;;;;8.73;5.20;;;6.20;99.90;;;5.60;100.00;98015.47;5023509;28;20033;-39
2022/09/21 00:54:01;;;;;;;9.52;5.47;;;6.20;99.90;;;5.61;100.00;98018.09;5023588;28;20037;-39
2022/09/21 00:56:28;;;;;;;7.40;4.60;;;6.20;99.90;;;5.56;100.00;98017.25;5030041;28;20032;-39
2022/09/21 00:58:54;;;;;;;9.05;5.03;;;6.20;99.90;;;5.56;100.00;98025.09;5025436;28;20034;-39
2022/09/21 01:01:20;;;;;;;6.22;4.60;;;6.20;99.90;;;5.49;100.00;98012.94;5028682;28;20030;-39
2022/09/21 01:03:48;;;;;;;11.63;4.68;;;6.20;99.90;;;5.47;100.00;98018.22;5026928;28;20033;-40
2022/09/21 01:06:17;;;;;;;7.22;4.25;;;6.20;99.90;;;5.44;100.00;98015.59;5024663;28;20609;-39
2022/09/21 01:08:46;;;;;;;7.57;4.25;;;6.10;99.90;;;5.41;100.00;98020.00;5025943;28;20053;-39
2022/09/21 01:11:29;;;;;;;5.90;4.00;;;6.00;99.90;;;5.36;100.00;98020.00;5024150;28;20043;-39
2022/09/21 01:14:33;;;;;;;4.82;3.63;;;6.00;99.90;;;5.34;100.00;98013.94;5023744;28;20116;-39
2022/09/21 01:17:25;;;;;;;7.13;3.83;;;6.00;99.90;;;5.38;100.00;98023.47;5013764;28;20732;-39
2022/09/21 01:20:44;;;;;;;5.10;3.63;;;6.00;99.90;;;5.38;100.00;98018.25;5010609;28;20041;-39
2022/09/21 01:23:25;;;;;;;6.97;3.95;;;6.00;99.90;;;5.36;100.00;98014.78;5021485;28;20041;-39
2022/09/21 01:26:42;;;;;;;5.75;3.85;;;6.00;99.90;;;5.32;100.00;98023.53;5059861;22;20044;-39
2022/09/21 01:29:25;;;;;;;6.43;4.15;;;6.00;99.90;;;5.29;100.00;98015.69;5069540;28;20119;-38
2022/09/21 01:32:06;;;;;;;7.80;4.22;;;5.90;99.90;;;5.24;100.00;98013.13;5069327;28;20031;-38
2022/09/21 01:34:47;;;;;;;4.95;3.38;;;5.90;99.90;;;5.25;100.00;98019.22;5052132;28;20028;-38
2022/09/21 01:37:23;;;;;;;5.32;3.50;;;5.90;99.90;;;5.19;100.00;98027.06;5069910;28;20031;-38
2022/09/21 01:39:55;;;;;;;7.20;3.42;;;5.90;99.90;;;5.16;100.00;98021.00;5067968;28;20051;-38
2022/09/21 01:42:23;;;;;;;6.40;3.90;;;5.80;99.90;;;5.14;100.00;98034.97;5068476;28;20028;-38
2022/09/21 01:44:50;;;;;;;3.88;2.95;;;5.80;99.90;;;5.09;100.00;98027.13;5072263;28;20061;-37
2022/09/21 01:47:17;;;;;;;5.60;3.47;;;5.80;99.90;;;5.07;100.00;98026.28;5070564;28;20020;-38
2022/09/21 01:49:49;;;;;;;6.78;3.20;;;5.80;99.90;;;5.10;100.00;98028.03;5053290;28;20031;-38
2022/09/21 01:52:35;;;;;;;7.25;3.10;;;5.80;99.90;;;5.07;100.00;98031.50;5068272;28;20051;-38
2022/09/21 01:55:09;;;;;;;3.97;3.03;;;5.70;99.90;;;5.06;100.00;98029.78;5067772;28;20040;-38
2022/09/21 01:58:04;;;;;;;6.28;3.05;;;5.70;99.90;;;5.04;100.00;98030.66;5070400;28;20039;-38
2022/09/21 02:00:33;;;;;;;6.53;2.72;;;5.70;99.90;;;5.03;100.00;98034.16;5055619;28;20048;-38
2022/09/21 02:03:14;;;;;;;5.70;3.55;;;5.70;99.90;;;4.96;100.00;98021.09;5069494;28;20161;-38
2022/09/21 02:05:41;;;;;;;7.47;3.20;;;5.60;99.90;;;4.96;100.00;98028.94;5062827;28;20496;-39
2022/09/21 02:08:09;;;;;;;7.45;3.50;;;5.60;99.90;;;4.93;100.00;98022.84;5066201;28;20123;-38
2022/09/21 02:10:44;;;;;;;5.82;3.95;;;5.60;99.90;;;4.95;100.00;98031.56;5067265;28;20579;-38
2022/09/21 02:13:15;;;;;;;6.72;3.90;;;5.60;99.90;;;4.96;100.00;98031.56;5064258;28;20024;-38
2022/09/21 02:16:11;;;;;;;6.35;3.85;;;5.60;99.90;;;4.97;100.00;98029.78;5068120;28;20109;-38
2022/09/21 02:19:16;;;;;;;7.30;4.40;;;5.60;99.90;;;4.96;100.00;98028.94;5065487;28;20427;-38
2022/09/21 02:22:05;;;;;;;7.18;3.90;;;5.60;99.90;;;4.98;100.00;98023.72;5063436;28;20029;-38
2022/09/21 02:24:42;;;;;;;6.10;3.92;;;5.60;99.90;;;4.95;100.00;98018.47;5069500;28;20367;-38
2022/09/21 02:27:19;;;;;;;8.27;3.50;;;5.60;99.90;;;4.97;100.00;98025.47;5067224;28;20318;-38
2022/09/21 02:30:34;;;;;;;6.65;3.95;;;5.60;99.90;;;4.93;100.00;98017.63;5068725;28;20042;-38
2022/09/21 02:33:26;;;;;;;5.47;3.53;;;5.60;99.90;;;4.91;100.00;98019.38;5065218;28;20040;-38
2022/09/21 02:36:28;;;;;;;7.13;3.70;;;5.60;99.90;;;4.88;100.00;98019.38;5065220;28;20060;-38
2022/09/21 02:39:06;;;;;;;6.03;4.00;;;5.60;99.90;;;4.81;100.00;98013.34;5072218;28;20039;-38
2022/09/21 02:41:48;;;;;;;6.43;3.92;;;5.50;99.90;;;4.85;100.00;98019.44;5089774;27;20606;-38
2022/09/21 02:44:19;;;;;;;;;;;5.50;99.90;;;4.78;100.00;98010.72;5072828;28;20020;-38
2022/09/21 02:46:54;;;;;;;6.10;3.70;;;5.50;99.90;;;4.80;100.00;98015.97;5063051;28;19965;-39
2022/09/21 02:49:39;;;;;;;5.53;3.78;;;5.50;99.90;;;4.77;100.00;98020.31;5087128;27;20048;-39
2022/09/21 02:52:12;;;;;;;6.13;3.75;;;5.50;99.90;;;4.76;100.00;98015.97;5066698;28;20037;-39
2022/09/21 02:54:41;;;;;;;6.28;3.83;;;5.40;99.90;;;4.74;100.00;98007.25;5069563;28;20024;-39
2022/09/21 02:57:07;;;;;;;7.18;3.95;;;5.40;99.90;;;4.77;100.00;98016.81;5069429;28;20020;-39
2022/09/21 02:59:33;;;;;;;7.03;3.95;;;5.40;99.90;;;4.78;100.00;98018.56;5072762;28;20484;-39
2022/09/21 03:01:59;;;;;;;6.45;4.10;;;5.40;99.90;;;4.78;100.00;98015.97;5066391;28;20038;-39
2022/09/21 03:04:26;;;;;;;8.27;4.13;;;5.50;99.90;;;4.79;100.00;98012.44;5071028;28;20549;-39
2022/09/21 03:06:52;;;;;;;5.53;3.80;;;5.50;99.90;;;4.79;100.00;98015.06;5067754;28;20082;-39
2022/09/21 03:09:23;;;;;;;6.55;4.32;;;5.50;99.90;;;4.77;100.00;98004.66;5073505;28;20497;-39
2022/09/21 03:11:49;;;;;;;6.72;3.80;;;5.50;99.90;;;4.79;100.00;98009.84;5071277;28;20074;-39
2022/09/21 03:14:15;;;;;;;7.60;4.63;;;5.50;99.90;;;4.76;100.00;98007.25;5069543;28;20163;-39
2022/09/21 03:16:41;;;;;;;9.85;4.57;;;5.50;99.90;;;4.74;100.00;98001.19;5066568;28;20036;-39
2022/09/21 03:19:07;;;;;;;6.38;4.63;;;5.50;99.90;;;4.81;100.00;98012.44;5072060;28;20780;-39
2022/09/21 03:21:33;;;;;;;7.53;4.70;;;5.50;99.90;;;4.64;100.00;97987.25;5074244;28;20519;-39
2022/09/21 03:23:59;;;;;;;6.93;4.70;;;5.50;99.90;;;4.80;100.00;98011.59;5068706;28;20122;-39
2022/09/21 03:26:25;;;;;;;7.03;4.00;;;5.50;99.90;;;4.79;100.00;98017.69;5071743;28;20030;-39
2022/09/21 03:28:53;;;;;;;7.50;4.45;;;5.50;99.90;;;4.76;100.00;98025.56;5070653;28;20035;-39
2022/09/21 03:31:19;;;;;;;6.70;4.28;;;5.40;99.90;;;4.71;100.00;98015.09;5068105;28;20064;-39
2022/09/21 03:33:45;;;;;;;8.10;4.13;;;5.40;99.90;;;4.71;100.00;98024.69;5071583;28;20135;-39
2022/09/21 03:36:10;;;;;;;6.60;4.20;;;5.40;99.90;;;4.53;100.00;97996.88;5071597;28;20055;-39
2022/09/21 03:38:37;;;;;;;7.22;4.35;;;5.40;99.90;;;4.68;100.00;98027.31;5073661;28;20067;-39
2022/09/21 03:41:03;;;;;;;6.78;3.95;;;5.40;99.90;;;4.65;100.00;98022.09;5069797;28;20036;-39
2022/09/21 03:43:29;;;;;;;5.88;3.88;;;5.30;99.90;;;4.63;100.00;98024.72;5069522;28;20102;-39
2022/09/21 03:45:55;;;;;;;6.13;3.88;;;5.30;99.90;;;4.53;100.00;98013.41;5068657;28;21587;-39
2022/09/21 03:48:21;;;;;;;5.60;4.10;;;5.30;99.90;;;4.62;100.00;98028.19;5065556;28;21364;-39
2022/09/21 03:50:46;;;;;;;6.07;4.07;;;5.30;99.90;;;4.59;100.00;98028.19;5061446;28;20032;-39
2022/09/21 03:53:12;;;;;;;5.50;3.40;;;5.30;99.90;;;4.58;100.00;98042.16;5071143;28;20572;-39
2022/09/21 03:55:38;;;;;;;4.85;3.42;;;5.30;99.90;;;4.54;100.00;98035.19;5072261;28;20042;-39
2022/09/21 03:58:04;;;;;;;7.50;3.20;;;5.30;99.90;;;4.54;100.00;98043.00;5067915;28;20035;-39
2022/09/21 04:00:31;;;;;;;6.20;3.60;;;5.30;99.90;;;4.53;100.00;98034.31;5065329;28;21193;-39
2022/09/21 04:02:57;;;;;;;4.68;3.50;;;5.20;99.90;;;4.49;100.00;98031.75;5068695;28;20028;-39
2022/09/21 04:05:22;;;;;;;5.80;3.95;;;5.20;99.90;;;4.42;100.00;98030.88;5072229;28;20117;-39
2022/09/21 04:07:48;;;;;;;6.88;4.10;;;5.10;99.90;;;4.40;100.00;98036.09;5068787;28;20031;-39
2022/09/21 04:10:18;;;;;;;6.30;4.20;;;5.10;99.90;;;4.43;100.00;98044.78;5069491;28;20032;-39
2022/09/21 04:12:45;;;;;;;7.70;4.28;;;5.10;99.90;;;4.38;100.00;98032.63;5071586;28;20537;-39
2022/09/21 04:15:13;;;;;;;6.63;4.05;;;5.10;99.90;;;4.38;100.00;98034.38;5069499;28;20089;-39
2022/09/21 04:17:39;;;;;;;10.30;4.32;;;5.10;99.90;;;4.35;100.00;98034.38;5073021;28;20473;-39
2022/09/21 04:20:07;;;;;;;8.02;4.45;;;5.00;99.90;;;4.33;100.00;98038.72;5072708;28;20149;-39
2022/09/21 04:22:35;;;;;;;6.78;4.10;;;5.00;99.90;;;4.29;100.00;98043.09;5074069;28;20038;-38
2022/09/21 04:25:02;;;;;;;5.68;3.83;;;5.00;99.90;;;4.25;100.00;98048.31;5083703;28;20028;-38
2022/09/21 04:27:28;;;;;;;8.25;3.95;;;4.90;99.90;;;4.23;100.00;98050.91;5064206;28;20042;-39
2022/09/21 04:29:54;;;;;;;6.53;3.42;;;4.90;99.90;;;4.13;100.00;98041.38;5070890;28;20040;-39
2022/09/21 04:32:19;;;;;;;6.65;3.97;;;4.90;99.90;;;4.16;100.00;98050.06;5073898;28;20405;-40
2022/09/21 04:34:45;;;;;;;6.68;4.13;;;4.90;99.90;;;4.13;100.00;98050.06;5078748;28;20089;-39
2022/09/21 04:37:11;;;;;;;4.82;3.83;;;4.80;99.90;;;4.14;100.00;98056.16;5071054;28;20024;-39
2022/09/21 04:39:38;;;;;;;7.97;4.15;;;4.80;99.90;;;4.00;100.00;98027.44;5076679;28;20035;-39
2022/09/21 04:42:04;;;;;;;8.40;4.07;;;4.80;99.90;;;4.13;100.00;98051.81;5072342;28;20016;-39
2022/09/21 04:44:30;;;;;;;7.90;4.40;;;4.80;99.90;;;4.11;100.00;98050.94;5071518;28;20524;-38
2022/09/21 04:46:57;;;;;;;5.88;3.90;;;4.80;99.90;;;4.14;100.00;98062.22;5068389;28;20114;-39
2022/09/21 04:49:23;;;;;;;7.13;4.70;;;4.80;99.90;;;4.13;100.00;98055.28;5067113;28;20104;-39
2022/09/21 04:51:49;;;;;;;5.70;4.15;;;4.80;99.90;;;4.09;100.00;98052.66;5064524;28;20119;-39
2022/09/21 04:54:15;;;;;;;6.63;4.28;;;4.90;99.90;;;4.10;100.00;98052.69;5065796;28;20605;-39
2022/09/21 04:56:41;;;;;;;8.65;4.95;;;4.80;99.90;;;4.08;100.00;98045.72;5064304;28;20781;-39
2022/09/21 04:59:07;;;;;;;8.57;4.63;;;4.80;99.90;;;4.08;100.00;98051.81;5070547;28;20293;-39
2022/09/21 05:01:32;;;;;;;10.27;4.90;;;4.80;99.90;;;4.13;100.00;98059.66;5074006;28;20036;-39
2022/09/21 05:04:00;;;;;;;9.63;5.07;;;4.90;99.90;;;4.17;100.00;98064.84;5074105;28;20025;-39
2022/09/21 05:06:28;;;;;;;10.45;5.90;;;4.90;99.90;;;4.18;100.00;98064.00;5073111;28;20051;-39
2022/09/21 05:11:38;;;;;;;8.27;5.75;;;4.90;99.90;;;4.20;100.00;98070.06;5076422;28;20066;-39
2022/09/21 05:14:05;;;;;;;10.93;5.25;;;4.90;99.90;;;4.22;100.00;98070.09;5072787;28;20071;-39
2022/09/21 05:16:31;;;;;;;8.45;5.53;;;4.90;99.90;;;4.21;100.00;98074.41;5071199;28;20036;-38
2022/09/21 05:18:57;;;;;;;8.60;5.30;;;4.90;99.90;;;4.23;100.00;98078.78;5073967;28;20113;-39
2022/09/21 05:21:23;;;;;;;10.02;5.85;;;4.90;99.90;;;4.24;100.00;98070.09;5069809;28;21225;-38
2022/09/21 05:23:49;;;;;;;10.15;5.57;;;4.90;99.90;;;4.24;100.00;98073.56;5069671;28;21569;-38
2022/09/21 05:26:15;;;;;;;7.53;5.55;;;4.90;99.90;;;4.24;100.00;98070.94;5068574;28;20039;-38
2022/09/21 05:28:41;;;;;;;8.70;5.65;;;4.90;99.90;;;4.28;100.00;98075.28;5070429;28;20496;-38
2022/09/21 05:31:11;;;;;;;8.40;5.25;;;5.00;99.90;;;4.30;100.00;98080.50;5068421;28;20043;-38
2022/09/21 05:33:41;;;;;;;6.78;4.63;;;5.00;99.90;;;4.30;100.00;98073.53;5068577;28;20036;-38
2022/09/21 05:36:39;;;;;;;9.93;5.60;;;5.00;99.90;;;4.35;100.00;98076.16;5061597;28;20039;-37
2022/09/21 05:39:06;;;;;;;8.35;5.40;;;5.00;99.90;;;4.39;100.00;98072.66;5068176;28;20028;-38
2022/09/21 05:41:32;;;;;;;8.63;5.05;;;5.10;99.90;;;4.37;100.00;98067.44;5069545;28;20032;-39
2022/09/21 05:43:58;;;;;;;9.02;5.32;;;5.10;99.90;;;4.48;100.00;98079.63;5059531;28;20398;-39
2022/09/21 05:46:40;;;;;;;7.93;4.90;;;5.20;99.90;;;4.54;100.00;98079.59;5070075;28;20020;-39
2022/09/21 05:49:43;;;;;;;7.38;4.65;;;5.20;99.90;;;4.57;100.00;98079.59;5071230;28;20323;-39
2022/09/21 05:52:24;;;;;;;7.80;4.82;;;5.30;99.90;;;4.69;100.00;98083.94;5063640;28;20458;-39
2022/09/21 05:55:10;;;;;;;8.50;4.25;;;5.40;99.90;;;4.75;100.00;98087.38;5062788;28;20028;-38
2022/09/21 05:58:00;;;;;;;7.93;5.38;;;5.40;99.90;;;4.81;100.00;98081.28;5067294;28;20027;-39
2022/09/21 06:00:41;;;;;;;10.55;4.95;;;5.50;99.90;;;4.84;100.00;98078.66;5068610;28;20389;-39
2022/09/21 06:03:31;;;;;;;6.68;4.43;;;5.60;99.90;;;4.66;100.00;98036.91;5064536;28;20028;-39
2022/09/21 06:05:58;;;;;;;6.05;4.72;;;5.60;99.90;;;4.93;100.00;98089.06;5067269;28;20656;-39
2022/09/21 06:08:25;;;;;;;12.23;5.47;;;5.70;99.90;;;5.03;100.00;98089.06;5069545;28;20062;-39
2022/09/21 06:10:51;;;;;;;7.45;4.57;;;5.70;99.90;;;5.02;100.00;98079.47;5070205;28;21064;-39
2022/09/21 06:13:17;;;;;;;9.77;4.97;;;5.80;99.90;;;5.15;100.00;98099.44;5066096;28;20083;-39
2022/09/21 06:15:43;;;;;;;8.05;5.30;;;5.80;99.90;;;5.20;100.00;98099.44;5070707;28;20054;-39
2022/09/21 06:18:09;;;;;;;9.52;6.07;;;5.90;99.90;;;5.28;100.00;98097.66;5073983;28;20393;-39
2022/09/21 06:20:35;;;;;;;8.88;5.93;;;6.00;99.90;;;5.35;100.00;98099.38;5070478;28;20455;-39
2022/09/21 06:23:03;;;;;;;7.25;5.13;;;6.10;99.90;;;5.40;100.00;98100.22;5072975;28;20036;-39
2022/09/21 06:25:29;;;;;;;7.57;5.22;;;6.10;99.90;;;5.46;100.00;98108.03;5073907;28;20060;-39
2022/09/21 06:27:56;;;;;;;10.52;6.05;;;6.20;99.90;;;5.47;100.00;98101.94;5070859;28;20116;-39
2022/09/21 06:30:21;;;;;;;8.32;6.28;;;6.20;99.90;;;5.58;100.00;98101.88;5067751;28;20552;-38
2022/09/21 06:32:47;;;;;;;12.63;6.85;;;6.30;99.90;;;5.68;100.00;98107.91;5074794;28;20125;-39
2022/09/21 06:35:13;;;;;;;12.25;6.75;;;6.40;99.90;;;5.74;100.00;98103.50;5073171;28;20028;-39
2022/09/21 06:37:40;;;;;;;12.32;7.10;;;6.50;99.90;;;5.85;100.00;98106.06;5068319;28;20508;-39
2022/09/21 06:40:07;;;;;;;15.40;8.10;;;6.60;99.90;;;5.78;100.00;98083.44;5072572;28;20128;-39
2022/09/21 06:42:33;;;;;;;14.13;8.25;;;6.60;99.90;;;5.94;100.00;98097.28;5074359;28;20157;-39
2022/09/21 06:44:58;;;;;;;14.52;8.82;;;6.70;99.90;;;6.09;100.00;98110.28;5072361;28;20020;-38
2022/09/21 06:47:24;;;;;;;14.27;8.02;;;6.80;99.90;;;6.12;100.00;98104.16;5073095;28;20035;-39
2022/09/21 06:49:50;;;;;;;12.63;7.80;;;6.80;99.90;;;6.23;100.00;98112.78;5069403;28;20109;-39
2022/09/21 06:52:15;;;;;;;14.50;8.25;;;7.00;99.90;;;6.30;100.00;98103.13;5069855;28;20033;-39
2022/09/21 06:54:41;;;;;;;13.30;8.40;;;7.00;99.90;;;6.37;100.00;98103.94;5072472;28;20822;-39
2022/09/21 06:57:07;;;;;;;12.30;7.43;;;7.10;99.90;;;6.41;100.00;98103.91;5068665;28;20079;-39
2022/09/21 06:59:32;;;;;;;10.43;7.82;;;7.10;99.90;;;6.48;100.00;98112.59;5066868;28;20445;-39
2022/09/21 07:01:58;;;;;;;14.80;8.00;;;7.20;99.90;;;6.53;100.00;98113.38;5069057;28;20027;-39
2022/09/21 07:04:24;;;;;;;13.75;8.15;;;7.20;99.90;;;6.45;100.00;98087.25;5063109;28;20036;-39
2022/09/21 07:06:50;;;;;;;12.73;7.72;;;7.30;99.90;;;6.60;100.00;98106.34;5072129;28;20047;-39
2022/09/21 07:09:15;;;;;;;14.60;7.72;;;7.30;99.90;;;6.64;100.00;98103.69;5071214;28;20914;-39
2022/09/21 07:11:41;;;;;;;15.02;9.38;;;7.40;99.90;;;6.67;100.00;98097.53;5071293;28;20553;-39
2022/09/21 07:14:07;;;;;;;11.57;8.35;;;7.50;99.90;;;6.72;100.00;98100.13;5073323;28;20039;-39
2022/09/21 07:16:33;;;;;;;11.68;7.88;;;7.50;99.90;;;6.81;100.00;98100.03;5070926;28;20031;-39
2022/09/21 07:18:58;;;;;;;11.35;7.97;;;7.50;99.90;;;6.88;100.00;98110.41;5074420;28;20377;-40
2022/09/21 07:21:24;;;;;;;12.13;8.15;;;7.60;99.90;;;6.94;100.00;98108.63;5070280;28;20081;-39
2022/09/21 07:23:50;;;;;;;10.90;7.38;;;7.70;99.90;;;6.96;100.00;98101.59;5070988;28;20071;-39
2022/09/21 07:26:15;;;;;;;15.32;7.63;;;7.70;99.90;;;7.07;100.00;98103.22;5082456;22;20049;-49
2022/09/21 07:28:41;;;;;;;14.73;8.18;;;7.80;99.90;;;7.13;100.00;98112.78;5035155;28;20036;-49
2022/09/21 07:31:14;;;;;;;13.40;7.50;;;7.80;99.90;;;7.21;100.00;98116.19;5034165;28;20029;-47
2022/09/21 07:33:42;;;;;;;11.93;7.15;;;8.00;99.90;;;7.31;100.00;98121.31;5032797;28;20141;-49
2022/09/21 07:36:09;;;;;;;13.25;7.00;;;8.00;99.90;;;7.38;100.00;98120.34;5029703;28;20024;-50
2022/09/21 07:38:42;;;;;;;11.23;6.80;;;8.10;99.90;;;7.44;100.00;98118.50;5027956;28;20494;-46
2022/09/21 07:41:13;;;;;;;13.13;6.70;;;8.20;99.90;;;7.55;100.00;98115.72;5031445;28;20134;-48
2022/09/21 07:43:39;;;;;;;10.80;6.55;;;8.30;99.90;;;7.65;100.00;98119.13;5029702;28;20029;-47
2022/09/21 07:46:06;;;;;;;10.00;6.25;;;8.40;99.90;;;7.73;100.00;98122.47;5029166;28;20032;-48
2022/09/21 07:48:32;;;;;;;7.85;5.45;;;8.50;99.90;;;7.83;100.00;98125.88;5031606;28;20029;-50
2022/09/21 07:51:10;;;;;;;7.30;5.60;;;8.60;99.90;;;7.94;100.00;98118.69;5029548;28;20044;-50
2022/09/21 07:53:37;;;;;;;9.40;5.07;;;8.60;99.90;;;8.05;100.00;98120.28;5033607;28;20037;-50
2022/09/21 07:56:06;;;;;;;6.03;4.63;;;8.80;99.90;;;8.15;100.00;98122.75;5035012;28;20028;-50
2022/09/21 08:01:16;;;;;;;10.75;5.35;;;8.90;99.90;;;8.40;100.00;98130.25;5035326;28;20043;-48
2022/09/21 08:03:42;;;;;;;9.60;3.90;;;9.10;99.90;;;8.47;100.00;98120.50;5027684;28;20033;-49
2022/09/21 08:06:08;;;;;;;7.10;3.90;;;9.20;99.90;;;8.66;100.00;98131.59;5029464;28;20039;-51
2022/09/21 08:08:35;;;;;;;7.95;4.15;;;9.30;99.90;;;8.74;100.00;98124.41;5032699;28;20246;-50
2022/09/21 08:11:05;;;;;;;8.70;4.40;;;9.50;99.90;;;8.86;100.00;98126.81;5033184;28;20112;-48
2022/09/21 08:13:31;;;;;;;6.40;4.30;;;9.50;99.90;;;9.01;100.00;98119.53;5034283;28;20045;-52
2022/09/21 08:15:59;;;;;;;8.68;5.32;;;9.60;99.90;;;9.21;100.00;98132.34;5031464;28;20037;-50
2022/09/21 08:18:25;;;;;;;9.48;5.38;;;9.80;99.90;;;9.34;100.00;98129.41;5033771;28;20520;-49
2022/09/21 08:20:58;;;;;;;9.02;4.88;;;10.00;99.90;;;9.48;100.00;98131.75;5031328;28;20440;-50
2022/09/21 08:23:25;;;;;;;;;;;10.10;99.90;;;9.62;100.00;98142.03;5027380;28;20079;-51
2022/09/21 08:25:51;;;;;;;6.18;3.38;;;10.20;99.90;;;9.75;100.00;98140.84;5032567;28;20011;-50
2022/09/21 08:28:17;;;;;;;7.70;2.75;;;10.30;99.90;;;9.86;100.00;98137.13;5032132;28;20060;-47
2022/09/21 08:30:43;;;;;;;6.15;2.30;;;10.40;99.90;;;9.98;100.00;98136.84;5032012;28;20028;-47
2022/09/21 08:33:09;;;;;;;4.53;2.80;;;10.50;99.90;;;10.07;100.00;98136.63;5033175;28;20442;-45
2022/09/21 08:35:35;;;;;;;9.85;3.72;;;10.60;99.90;;;10.06;100.00;98119.06;5032188;28;20033;-48
2022/09/21 08:38:01;;;;;;;6.10;2.83;;;10.70;99.90;;;10.26;100.00;98133.53;5034820;28;20047;-45
2022/09/21 08:40:27;;;;;;;8.05;3.10;;;10.80;99.90;;;10.38;100.00;98137.69;5027680;28;20033;-47
2022/09/21 08:43:37;;;;;;;4.15;2.20;;;10.90;99.90;;;10.49;100.00;98135.66;5031127;28;20029;-44
2022/09/21 08:46:09;;;;;;;3.60;2.70;;;11.00;99.90;;;10.55;100.00;98132.00;5020652;28;20116;-44
2022/09/21 08:48:44;;;;;;;6.18;3.05;;;11.10;99.90;;;10.66;100.00;98143.16;5031227;28;20033;-45
2022/09/21 08:51:20;;;;;;;6.47;2.90;;;11.20;99.90;;;10.75;100.00;98140.28;5030506;28;20494;-47
2022/09/21 08:53:51;;;;;;;4.90;2.85;;;11.20;99.90;;;10.85;100.00;98133.84;5032476;28;20517;-47
2022/09/21 08:56:16;;;;;;;7.15;2.50;;;11.40;99.90;;;10.95;100.00;98138.91;5033391;28;20040;-47
2022/09/21 08:58:42;;;;;;;5.50;2.33;;;11.40;99.90;;;11.05;100.00;98138.63;5033940;28;20033;-47
2022/09/21 09:01:58;;;;;;;3.85;2.88;;;11.50;99.90;;;11.13;100.00;98135.75;5032023;28;20439;-49
2022/09/21 09:04:55;;;;;;;4.10;2.15;;;11.60;99.90;;;11.20;100.00;98131.19;5029500;28;20040;-48
2022/09/21 09:07:31;;;;;;;4.63;2.40;;;11.70;99.90;;;11.16;100.00;98133.03;5027667;28;20036;-47
2022/09/21 09:10:18;;;;;;;7.13;2.40;;;11.70;99.90;;;11.22;100.00;98132.84;5042089;28;20100;-48
2022/09/21 09:13:14;;;;;;;4.20;2.50;;;11.80;99.90;;;11.24;100.00;98117.84;5027093;28;20051;-47
2022/09/21 09:16:02;;;;;;;5.00;2.22;;;11.80;99.90;;;11.25;100.00;98123.97;5025999;28;20044;-46
2022/09/21 09:18:42;;;;;;;7.47;2.10;;;11.80;99.90;;;11.33;100.00;98131.69;5031296;28;20120;-46
2022/09/21 09:21:23;;;;;;;4.90;2.13;;;11.80;99.90;;;11.39;100.00;98126.22;5029273;28;20025;-47
2022/09/21 09:23:52;;;;;;;3.78;2.10;;;11.90;99.90;;;11.46;100.00;98115.44;5030481;28;20546;-47
2022/09/21 09:26:28;;;;;;;3.92;2.08;;;12.00;99.90;;;11.50;97.44;98118.00;5027364;28;20099;-47
2022/09/21 09:29:37;;;;;;;5.78;2.10;;;12.00;99.90;;;11.58;97.46;98129.22;5029656;28;20041;-47
2022/09/21 09:32:03;;;;;;;2.47;1.50;;;12.00;99.90;;;11.63;96.40;98122.88;5032916;28;20029;-51
2022/09/21 09:34:42;;;;;;;3.83;1.90;;;12.10;99.90;;;11.67;93.47;98126.31;5031674;28;20033;-47
2022/09/21 09:37:16;;;;;;;3.55;1.70;;;12.20;99.90;;;11.67;93.54;98118.38;5025074;28;21449;-49
2022/09/21 09:39:48;;;;;;;4.22;1.85;;;12.20;99.90;;;11.60;92.51;98115.03;5030458;28;20045;-46
2022/09/21 09:42:50;;;;;;;3.78;2.20;;;12.20;99.90;;;11.62;93.50;98118.50;5045922;28;20206;-51
2022/09/21 09:45:42;;;;;;;3.75;1.80;;;12.10;99.90;;;11.72;93.78;98119.09;5031282;28;20028;-48
2022/09/21 09:48:41;;;;;;;6.30;1.70;;;12.20;99.90;;;11.83;90.78;98118.78;5027007;28;20043;-49
2022/09/21 09:51:11;;;;;;;4.15;1.42;;;12.30;99.90;;;11.93;90.97;98114.09;5033170;28;20040;-50
2022/09/21 09:53:37;;;;;;;6.95;1.80;;;12.40;99.90;;;11.98;87.83;98114.81;5033040;28;20028;-48
2022/09/21 09:56:04;;;;;;;2.63;1.35;;;12.50;99.90;;;11.99;85.05;98112.13;5035946;28;20686;-50
2022/09/21 09:58:58;;;;;;;3.03;1.40;;;12.50;99.90;;;12.09;88.07;98104.75;5035273;28;20650;-51
2022/09/21 10:01:42;;;;;;;3.10;1.27;;;12.60;99.90;;;12.19;80.43;98115.94;5030251;28;20494;-47
2022/09/21 10:04:12;;;;;;;3.40;1.23;;;12.70;99.90;;;12.23;80.78;98104.34;5033651;28;20119;-48
2022/09/21 10:06:38;;;;;;;1.83;1.05;;;12.70;99.90;;;12.38;81.93;98105.59;5031804;28;20037;-47
2022/09/21 10:09:33;;;;;;;2.30;1.02;;;12.80;99.90;;;12.49;82.06;98087.63;5036057;28;20159;-47
2022/09/21 10:12:03;;;;;;;3.03;1.13;;;13.00;99.90;;;12.77;81.24;98103.38;5030608;28;20096;-50
2022/09/21 10:14:33;;;;;;;3.60;1.38;;;13.30;99.90;;;12.91;78.35;98092.31;5032852;28;20064;-48
2022/09/21 10:17:07;;;;;;;3.25;1.02;;;13.40;99.90;;;13.00;78.17;98096.44;5018580;28;21491;-49
2022/09/21 10:19:33;;;;;;;1.92;1.13;;;13.50;99.90;;;13.02;78.08;98091.94;5029374;28;20116;-48
2022/09/21 10:22:02;;;;;;;1.70;0.82;;;13.60;99.90;;;13.03;78.25;98092.81;5035819;28;20036;-49
2022/09/21 10:24:36;;;;;;;2.60;1.20;;;13.50;99.90;;;12.99;79.04;98089.41;5024648;28;20041;-51
2022/09/21 10:27:13;;;;;;;2.97;1.15;;;13.50;99.90;;;12.84;79.31;98087.31;5033033;28;20044;-48
2022/09/21 10:29:45;;;;;;;1.88;1.10;;;13.40;99.90;;;12.70;80.82;98098.38;5032262;28;20048;-50
2022/09/21 10:32:22;;;;;;;1.58;0.70;;;13.20;99.90;;;12.57;78.66;98084.69;5034468;28;20033;-47
2022/09/21 10:35:06;;;;;;;2.17;0.82;;;13.10;99.90;;;12.61;77.29;98088.97;5031661;28;20049;-47
2022/09/21 10:37:42;;;;;;;0.73;0.63;;;13.10;99.90;;;12.49;75.64;98069.09;5029658;28;21522;-53
2022/09/21 10:40:19;;;;;;;1.90;0.50;;;13.10;99.90;;;12.71;77.17;98081.59;5037877;28;20029;-51
2022/09/21 10:43:04;;;;;;;1.98;0.80;;;13.20;99.90;;;12.92;77.56;98078.19;5037851;28;20478;-48
2022/09/21 10:45:36;;;;;;;3.10;0.90;;;13.40;99.90;;;13.20;74.44;98074.53;5047119;28;20064;-48
2022/09/21 10:48:04;;;;;;;0.75;0.63;;;13.70;99.90;;;13.47;73.11;98064.72;5030480;28;20063;-53
2022/09/21 10:50:42;;;;;;;1.35;0.70;;;14.00;99.90;;;13.87;70.87;98068.50;5036144;28;20635;-47